Time;durP1;ratioP1;P1;durP2;ratioP2;P2;SDS_P1;SDS_P2;PMS_P1;PMS_P2;Temp;Humidity;BMP_temperature;BMP_pressure;BME280_temperature;BME280_humidity;BME280_pressure;Samples;Min_cycle;Max_cycle;Signal;HPM_P1;HPM_P2
2022/06/04 00:01:39;;;;;;;28.05;17.73;;;19.20;99.90;;;;;;5068320;28;20037;-81
2022/06/04 00:04:04;;;;;;;22.75;18.05;;;19.20;99.90;;;;;;5069845;28;20082;-81
2022/06/04 00:06:30;;;;;;;27.75;20.67;;;19.40;99.90;;;;;;5067778;28;20024;-82
2022/06/04 00:08:56;;;;;;;26.95;18.25;;;19.50;99.90;;;;;;5070882;28;20093;-82
2022/06/04 00:16:50;;;;;;;23.52;15.65;;;19.40;99.90;;;;;;5070529;28;20039;-81
2022/06/04 00:19:15;;;;;;;23.05;17.35;;;19.40;99.90;;;;;;5070436;28;20437;-81
2022/06/04 00:21:41;;;;;;;35.47;21.63;;;19.40;99.90;;;;;;5068626;28;20449;-81
2022/06/04 00:24:07;;;;;;;26.42;21.38;;;19.40;99.90;;;;;;5071198;28;20540;-81
2022/06/04 00:26:32;;;;;;;28.23;20.98;;;19.30;99.90;;;;;;5068053;28;20072;-81
2022/06/04 00:28:58;;;;;;;26.35;19.13;;;19.30;99.90;;;;;;5066670;28;20029;-82
2022/06/04 00:31:24;;;;;;;25.13;19.75;;;19.40;99.90;;;;;;5068255;28;20072;-81
2022/06/04 00:33:50;;;;;;;28.42;21.48;;;19.40;99.90;;;;;;5069316;28;20450;-82
2022/06/04 00:36:15;;;;;;;24.38;17.65;;;19.50;99.90;;;;;;5069155;28;20060;-82
2022/06/04 00:38:41;;;;;;;25.02;18.73;;;19.50;99.90;;;;;;5068352;28;20441;-82
2022/06/04 00:41:09;;;;;;;21.10;17.02;;;19.50;99.90;;;;;;5069789;28;20043;-81
2022/06/04 00:44:23;;;;;;;25.77;17.95;;;19.50;99.90;;;;;;5067893;28;20032;-82
2022/06/04 00:47:03;;;;;;;19.58;15.93;;;19.50;99.90;;;;;;5070865;28;20062;-81
2022/06/04 00:49:30;;;;;;;23.60;16.30;;;19.60;99.90;;;;;;5069040;28;20039;-81
2022/06/04 00:51:55;;;;;;;22.48;18.58;;;19.60;99.90;;;;;;5067607;28;20553;-82
2022/06/04 00:54:21;;;;;;;27.52;19.13;;;19.60;99.90;;;;;;5069891;28;20040;-81
2022/06/04 00:57:28;;;;;;;19.02;14.63;;;19.60;99.90;;;;;;5069883;28;20064;-81
2022/06/04 01:00:13;;;;;;;14.85;12.43;;;19.50;99.90;;;;;;5018146;28;20037;-81
2022/06/04 01:03:12;;;;;;;20.33;13.98;;;19.50;99.90;;;;;;5068984;28;20094;-82
2022/06/04 01:05:59;;;;;;;17.77;13.85;;;19.50;99.90;;;;;;5068863;28;20082;-82
2022/06/04 01:09:10;;;;;;;24.48;18.52;;;19.60;99.90;;;;;;5069356;28;20028;-81
2022/06/04 01:12:09;;;;;;;25.30;18.90;;;19.50;99.90;;;;;;5068483;28;20043;-81
2022/06/04 01:14:56;;;;;;;23.92;17.35;;;19.60;99.90;;;;;;5066618;28;20032;-81
2022/06/04 01:17:48;;;;;;;22.88;18.40;;;19.60;99.90;;;;;;5074692;28;20390;-82
2022/06/04 01:20:29;;;;;;;29.23;19.40;;;19.60;99.90;;;;;;5070003;28;20028;-81
2022/06/04 01:23:04;;;;;;;24.75;17.75;;;19.60;99.90;;;;;;5074100;28;20036;-81
2022/06/04 01:25:57;;;;;;;23.77;17.63;;;19.70;99.90;;;;;;5070733;28;20033;-81
2022/06/04 01:28:25;;;;;;;21.73;13.88;;;19.60;99.90;;;;;;5070581;28;20116;-81
2022/06/04 01:30:54;;;;;;;19.42;15.55;;;19.50;99.90;;;;;;5074101;28;20087;-81
2022/06/04 01:33:29;;;;;;;22.10;15.93;;;19.50;99.90;;;;;;5072025;28;20115;-82
2022/06/04 01:36:16;;;;;;;23.02;15.10;;;19.50;99.90;;;;;;5073309;28;20032;-82
2022/06/04 01:39:03;;;;;;;20.70;15.93;;;19.60;99.90;;;;;;5066830;28;20506;-82
2022/06/04 01:41:46;;;;;;;19.10;13.32;;;19.70;99.90;;;;;;5073289;28;20479;-82
2022/06/04 01:44:15;;;;;;;23.40;15.82;;;19.60;99.90;;;;;;5073075;28;20033;-82
2022/06/04 01:46:51;;;;;;;21.73;16.15;;;19.50;99.90;;;;;;5072845;28;20028;-81
2022/06/04 01:49:46;;;;;;;21.75;16.20;;;19.30;99.90;;;;;;5068729;28;20394;-81
2022/06/04 01:52:20;;;;;;;27.58;17.08;;;19.30;99.90;;;;;;5071583;28;20489;-82
2022/06/04 01:54:54;;;;;;;20.05;14.43;;;19.30;99.90;;;;;;5070995;28;20429;-82
2022/06/04 01:57:24;;;;;;;19.02;14.52;;;19.30;99.90;;;;;;5073523;28;20127;-83
2022/06/04 02:00:15;;;;;;;18.23;13.73;;;19.20;99.90;;;;;;5073421;28;20032;-82
2022/06/04 02:02:49;;;;;;;19.27;11.68;;;19.10;99.90;;;;;;5066968;28;20044;-82
2022/06/04 02:05:22;;;;;;;16.10;12.43;;;19.00;99.90;;;;;;5070181;28;20467;-82
2022/06/04 02:07:50;;;;;;;19.75;13.25;;;19.10;99.90;;;;;;5073035;28;20060;-81
2022/06/04 02:10:22;;;;;;;20.77;14.23;;;19.20;99.90;;;;;;5069958;28;20035;-82
2022/06/04 02:12:52;;;;;;;22.25;14.35;;;19.20;99.90;;;;;;5072085;28;20059;-81
2022/06/04 02:15:22;;;;;;;20.55;14.07;;;19.20;99.90;;;;;;5068985;28;20067;-82
2022/06/04 02:17:51;;;;;;;17.42;12.93;;;19.20;99.90;;;;;;5072479;28;20497;-82
2022/06/04 02:20:17;;;;;;;15.73;12.90;;;19.30;99.90;;;;;;5068910;28;20028;-82
2022/06/04 02:22:43;;;;;;;17.17;12.85;;;19.30;99.90;;;;;;5072213;28;20083;-82
2022/06/04 02:25:11;;;;;;;20.23;13.77;;;19.30;99.90;;;;;;5069416;28;20517;-81
2022/06/04 02:27:37;;;;;;;17.75;12.30;;;19.20;99.90;;;;;;5071642;28;20040;-81
2022/06/04 02:30:06;;;;;;;18.23;10.82;;;19.30;99.90;;;;;;5072399;28;20043;-82
2022/06/04 02:32:38;;;;;;;15.20;11.45;;;19.20;99.90;;;;;;5070670;28;20071;-81
2022/06/04 02:35:16;;;;;;;19.50;13.23;;;19.20;99.90;;;;;;5068270;28;20028;-81
2022/06/04 02:38:04;;;;;;;19.08;11.85;;;19.10;99.90;;;;;;5072937;28;20105;-82
2022/06/04 02:40:38;;;;;;;16.83;13.05;;;19.20;99.90;;;;;;5066410;28;20085;-81
2022/06/04 02:43:24;;;;;;;18.55;11.70;;;19.10;99.90;;;;;;5071066;28;20052;-81
2022/06/04 02:45:55;;;;;;;14.60;10.23;;;18.90;99.90;;;;;;5069853;28;20021;-81
2022/06/04 02:48:26;;;;;;;15.85;11.90;;;18.80;99.90;;;;;;5070342;28;20120;-81
2022/06/04 02:50:58;;;;;;;13.88;11.05;;;18.80;99.90;;;;;;5068101;28;20359;-81
2022/06/04 02:53:26;;;;;;;15.98;10.48;;;18.80;99.90;;;;;;5070189;28;20032;-81
2022/06/04 02:56:08;;;;;;;13.80;9.75;;;18.80;99.90;;;;;;5073978;28;20447;-81
2022/06/04 02:58:36;;;;;;;18.50;10.93;;;18.60;99.90;;;;;;5070145;28;20048;-81
2022/06/04 03:01:04;;;;;;;18.17;10.82;;;18.60;99.90;;;;;;5072213;28;20068;-80
2022/06/04 03:03:29;;;;;;;17.45;10.70;;;18.50;99.90;;;;;;5064714;28;20040;-81
2022/06/04 03:05:58;;;;;;;15.60;11.15;;;18.60;99.90;;;;;;5050468;28;20036;-80
2022/06/04 03:08:25;;;;;;;16.20;10.68;;;18.50;99.90;;;;;;5063979;28;20036;-81
2022/06/04 03:10:51;;;;;;;15.25;9.45;;;18.40;99.90;;;;;;5067477;28;20059;-80
2022/06/04 03:13:17;;;;;;;14.05;10.73;;;18.30;99.90;;;;;;5047571;28;20771;-80
2022/06/04 03:15:42;;;;;;;14.52;9.73;;;18.30;99.90;;;;;;5069489;28;20027;-81
2022/06/04 03:18:08;;;;;;;16.88;12.40;;;18.40;99.90;;;;;;5067960;28;20098;-81
2022/06/04 03:20:34;;;;;;;18.88;9.82;;;18.40;99.90;;;;;;5062334;28;20143;-81
2022/06/04 03:22:59;;;;;;;14.57;9.98;;;18.40;99.90;;;;;;5066408;28;20036;-80
2022/06/04 03:25:25;;;;;;;15.40;10.07;;;18.30;99.90;;;;;;5064804;28;20625;-80
2022/06/04 03:27:51;;;;;;;13.98;8.95;;;18.30;99.90;;;;;;5067604;28;20081;-80
2022/06/04 03:30:17;;;;;;;16.10;10.50;;;18.30;99.90;;;;;;5064500;28;20048;-80
2022/06/04 03:32:43;;;;;;;15.18;9.90;;;18.30;99.90;;;;;;5068713;28;20036;-80
2022/06/04 03:35:09;;;;;;;15.50;10.60;;;18.20;99.90;;;;;;5065325;28;20029;-80
2022/06/04 03:37:36;;;;;;;17.80;10.32;;;18.20;99.90;;;;;;5066372;28;20033;-80
2022/06/04 03:40:04;;;;;;;14.80;11.30;;;18.20;99.90;;;;;;5065010;28;20032;-80
2022/06/04 03:42:29;;;;;;;12.45;10.25;;;18.00;99.90;;;;;;5066064;28;20052;-79
2022/06/04 03:44:55;;;;;;;16.30;9.73;;;17.90;99.90;;;;;;5061323;28;20050;-80
2022/06/04 03:47:21;;;;;;;13.00;10.05;;;17.90;99.90;;;;;;5064168;28;20666;-80
2022/06/04 03:49:46;;;;;;;13.90;10.23;;;17.90;99.90;;;;;;5065135;28;20688;-80
2022/06/04 03:52:13;;;;;;;14.82;10.18;;;18.00;99.90;;;;;;5065229;28;20044;-81
2022/06/04 03:54:54;;;;;;;14.32;10.18;;;18.00;99.90;;;;;;5062711;28;20028;-80
2022/06/04 03:58:00;;;;;;;12.52;8.50;;;18.10;99.90;;;;;;5060354;28;20123;-80
2022/06/04 04:00:19;;;;;;;9.88;7.85;;;18.00;99.90;;;;;;5062017;28;20429;-80
2022/06/04 04:02:48;;;;;;;13.65;8.88;;;17.90;99.90;;;;;;5067595;28;20596;-80
2022/06/04 04:05:16;;;;;;;14.75;8.55;;;17.90;99.90;;;;;;5065664;28;20021;-80
2022/06/04 04:07:42;;;;;;;13.05;9.25;;;17.80;99.90;;;;;;5064405;28;20024;-79
2022/06/04 04:10:09;;;;;;;14.88;9.65;;;17.90;99.90;;;;;;5065072;28;20035;-79
2022/06/04 04:12:35;;;;;;;13.40;8.30;;;18.00;99.90;;;;;;5066606;28;20505;-80
2022/06/04 04:15:01;;;;;;;14.82;9.57;;;18.10;99.90;;;;;;5066379;28;20036;-80
2022/06/04 04:17:27;;;;;;;16.40;9.02;;;18.10;99.90;;;;;;5065096;28;20086;-79
2022/06/04 04:19:53;;;;;;;14.27;9.50;;;18.00;99.90;;;;;;5067180;28;20032;-79
2022/06/04 04:22:19;;;;;;;12.82;9.15;;;18.20;99.90;;;;;;5065617;28;20041;-80
2022/06/04 04:24:45;;;;;;;15.77;9.20;;;18.30;99.90;;;;;;5064838;28;20113;-80
2022/06/04 04:27:11;;;;;;;16.38;10.32;;;18.20;99.90;;;;;;5065078;28;20044;-79
2022/06/04 04:29:38;;;;;;;16.67;9.45;;;18.50;99.90;;;;;;5067712;28;20040;-79
2022/06/04 04:32:04;;;;;;;14.40;10.13;;;18.50;99.90;;;;;;5072834;28;20536;-79
2022/06/04 04:34:31;;;;;;;18.60;8.85;;;18.60;99.90;;;;;;5064793;28;20207;-79
2022/06/04 04:36:57;;;;;;;13.57;10.43;;;18.50;99.90;;;;;;5064614;28;20041;-79
2022/06/04 04:39:23;;;;;;;11.48;9.18;;;18.60;99.90;;;;;;5070849;28;20066;-80
2022/06/04 04:41:49;;;;;;;17.48;10.05;;;18.60;99.90;;;;;;5066277;28;20502;-79
2022/06/04 04:44:15;;;;;;;12.73;9.57;;;18.50;99.90;;;;;;5065057;28;20032;-79
2022/06/04 04:46:41;;;;;;;14.77;10.52;;;18.50;99.90;;;;;;5065473;28;20055;-80
2022/06/04 04:49:06;;;;;;;13.82;11.23;;;18.60;99.90;;;;;;5062675;28;20436;-79
2022/06/04 04:51:34;;;;;;;14.13;9.20;;;18.60;99.90;;;;;;5065508;28;20536;-79
2022/06/04 04:54:01;;;;;;;12.82;8.88;;;18.60;99.90;;;;;;5064249;28;20617;-80
2022/06/04 04:56:27;;;;;;;14.35;8.95;;;18.60;99.90;;;;;;5066331;28;20037;-80
2022/06/04 04:58:53;;;;;;;14.60;9.23;;;18.60;99.90;;;;;;5064455;28;20056;-80
2022/06/04 05:01:27;;;;;;;23.00;7.85;;;18.50;99.90;;;;;;5064616;28;20051;-80
2022/06/04 05:03:54;;;;;;;13.00;10.40;;;18.40;99.90;;;;;;5065518;28;20487;-79
2022/06/04 05:06:20;;;;;;;11.55;8.50;;;18.30;99.90;;;;;;5072844;28;20039;-80
2022/06/04 05:08:48;;;;;;;15.07;9.82;;;18.40;99.90;;;;;;5065666;28;20094;-80
2022/06/04 05:11:18;;;;;;;16.52;10.05;;;18.60;99.90;;;;;;5065583;28;20031;-79
2022/06/04 05:13:49;;;;;;;16.77;10.15;;;18.70;99.90;;;;;;5064229;28;20059;-80
2022/06/04 05:16:19;;;;;;;17.10;9.30;;;18.80;99.90;;;;;;5066989;28;20081;-80
2022/06/04 05:18:45;;;;;;;18.17;9.25;;;18.90;99.90;;;;;;5068592;28;20119;-79
2022/06/04 05:21:21;;;;;;;15.90;7.97;;;19.10;99.90;;;;;;5064399;28;20123;-80
2022/06/04 05:23:48;;;;;;;12.98;8.10;;;19.10;99.90;;;;;;5062359;28;20040;-80
2022/06/04 05:26:14;;;;;;;10.77;8.52;;;19.00;99.90;;;;;;5064881;28;20038;-79
2022/06/04 05:28:40;;;;;;;11.68;7.68;;;19.10;99.90;;;;;;5063271;28;20039;-79
2022/06/04 05:31:05;;;;;;;11.20;8.00;;;19.10;99.90;;;;;;5063066;28;20048;-78
2022/06/04 05:33:31;;;;;;;14.80;7.95;;;19.00;99.90;;;;;;5065299;28;20661;-77
2022/06/04 05:35:57;;;;;;;12.15;8.15;;;19.10;99.90;;;;;;5074287;28;20036;-78
2022/06/04 05:38:24;;;;;;;10.98;8.38;;;19.00;99.90;;;;;;5065473;28;20032;-76
2022/06/04 05:40:58;;;;;;;11.32;7.25;;;19.20;99.90;;;;;;5063819;28;20044;-76
2022/06/04 05:43:24;;;;;;;11.32;7.78;;;19.30;99.90;;;;;;5062494;28;20032;-77
2022/06/04 05:45:57;;;;;;;11.60;6.97;;;19.10;99.90;;;;;;5061892;28;20032;-77
2022/06/04 05:48:22;;;;;;;11.52;8.50;;;19.00;99.90;;;;;;5065790;28;20040;-76
2022/06/04 05:50:49;;;;;;;15.77;8.50;;;19.20;99.90;;;;;;5064305;28;20029;-76
2022/06/04 05:53:15;;;;;;;10.57;7.57;;;19.30;99.90;;;;;;5063957;28;20028;-77
2022/06/04 05:55:41;;;;;;;11.52;8.35;;;19.40;99.90;;;;;;5063324;28;20029;-77
2022/06/04 05:58:06;;;;;;;10.23;7.43;;;19.50;99.90;;;;;;5063672;28;20037;-77
2022/06/04 06:00:32;;;;;;;10.18;6.65;;;19.60;99.90;;;;;;5064485;28;20084;-76
2022/06/04 06:02:57;;;;;;;9.15;6.38;;;19.60;99.90;;;;;;5063381;28;20118;-76
2022/06/04 06:05:23;;;;;;;11.73;7.22;;;19.70;99.90;;;;;;5063608;28;20029;-76
2022/06/04 06:07:49;;;;;;;14.60;7.93;;;19.60;99.90;;;;;;5065459;28;20021;-77
2022/06/04 06:10:14;;;;;;;10.77;6.82;;;19.60;99.90;;;;;;5061616;28;20420;-77
2022/06/04 06:12:40;;;;;;;11.35;7.57;;;19.70;99.90;;;;;;5065358;28;20603;-77
2022/06/04 06:15:06;;;;;;;13.60;7.30;;;19.70;99.90;;;;;;5062550;28;20052;-77
2022/06/04 06:17:32;;;;;;;9.73;7.57;;;19.70;99.90;;;;;;5064797;28;20032;-76
2022/06/04 06:19:58;;;;;;;14.65;7.28;;;19.80;99.90;;;;;;5063425;28;20081;-76
2022/06/04 06:22:23;;;;;;;13.15;7.30;;;19.80;99.90;;;;;;5064135;28;20035;-79
2022/06/04 06:24:49;;;;;;;9.50;7.32;;;19.90;99.90;;;;;;5064998;28;20051;-76
2022/06/04 06:27:14;;;;;;;10.13;7.60;;;19.90;99.90;;;;;;5063333;28;20044;-75
2022/06/04 06:29:40;;;;;;;13.38;7.30;;;19.90;99.90;;;;;;5061100;28;20084;-75
2022/06/04 06:32:06;;;;;;;11.68;6.85;;;20.00;99.90;;;;;;5065487;28;20143;-75
2022/06/04 06:34:32;;;;;;;9.10;6.07;;;20.20;99.90;;;;;;5064468;28;20056;-76
2022/06/04 06:36:57;;;;;;;9.68;7.07;;;20.20;99.90;;;;;;5063666;28;20075;-75
2022/06/04 06:39:23;;;;;;;13.35;6.50;;;20.20;99.90;;;;;;5062826;28;20032;-75
2022/06/04 06:41:49;;;;;;;11.43;7.65;;;20.20;99.90;;;;;;5064020;28;20040;-75
2022/06/04 06:44:14;;;;;;;12.27;8.10;;;20.20;99.90;;;;;;5055910;28;20386;-76
2022/06/04 06:46:43;;;;;;;12.88;7.05;;;20.30;99.90;;;;;;5065632;28;20119;-75
2022/06/04 06:49:22;;;;;;;9.68;6.78;;;20.40;99.90;;;;;;5061190;28;20020;-75
2022/06/04 06:51:51;;;;;;;10.55;7.18;;;20.50;99.90;;;;;;5064328;28;20032;-75
2022/06/04 06:54:18;;;;;;;11.35;7.05;;;20.50;99.90;;;;;;5059260;28;20110;-76
2022/06/04 06:56:45;;;;;;;12.48;7.75;;;20.70;99.90;;;;;;5063799;28;20044;-76
2022/06/04 06:59:11;;;;;;;13.82;7.57;;;20.80;99.90;;;;;;5062244;28;20044;-75
2022/06/04 07:01:37;;;;;;;12.73;8.05;;;20.90;99.90;;;;;;5063381;28;20044;-75
2022/06/04 07:04:04;;;;;;;11.15;7.10;;;21.00;99.90;;;;;;5064312;28;20032;-75
2022/06/04 07:06:35;;;;;;;10.82;7.97;;;21.30;99.90;;;;;;5062038;28;20529;-75
2022/06/04 07:09:03;;;;;;;11.50;6.93;;;21.50;99.90;;;;;;5065006;28;20107;-76
2022/06/04 07:11:30;;;;;;;8.95;6.20;;;21.70;99.90;;;;;;5062893;28;20035;-77
2022/06/04 07:13:56;;;;;;;11.90;7.57;;;21.90;99.90;;;;;;5064236;28;20044;-75
2022/06/04 07:16:22;;;;;;;10.35;7.18;;;22.10;99.90;;;;;;5062114;28;20075;-76
2022/06/04 07:18:48;;;;;;;12.55;6.55;;;22.30;99.90;;;;;;5065079;28;20032;-76
2022/06/04 07:21:14;;;;;;;13.00;6.70;;;22.60;99.90;;;;;;5058179;28;20032;-76
2022/06/04 07:23:40;;;;;;;10.75;6.57;;;22.50;99.90;;;;;;5064467;28;20064;-75
2022/06/04 07:26:06;;;;;;;10.85;6.30;;;22.80;99.90;;;;;;5063358;28;20068;-76
2022/06/04 07:28:32;;;;;;;10.02;6.00;;;23.50;99.90;;;;;;5066550;28;20036;-75
2022/06/04 07:30:59;;;;;;;8.93;5.82;;;24.40;99.90;;;;;;5067651;28;20047;-76
2022/06/04 07:33:28;;;;;;;12.55;6.40;;;24.80;99.30;;;;;;5068741;28;20064;-75
2022/06/04 07:35:54;;;;;;;9.30;6.05;;;25.30;98.60;;;;;;5066646;28;20024;-75
2022/06/04 07:38:19;;;;;;;10.38;6.00;;;26.10;97.80;;;;;;5066540;28;20040;-75
2022/06/04 07:40:45;;;;;;;10.30;6.00;;;27.20;96.60;;;;;;5066981;28;20068;-76
2022/06/04 07:43:12;;;;;;;13.60;6.93;;;27.10;96.00;;;;;;5067871;28;20441;-76
2022/06/04 07:45:38;;;;;;;10.73;5.30;;;27.20;96.30;;;;;;5066985;28;20028;-75
2022/06/04 07:48:06;;;;;;;8.30;5.70;;;26.70;95.90;;;;;;5066904;28;20086;-75
2022/06/04 07:50:33;;;;;;;8.43;5.28;;;26.50;95.90;;;;;;5067769;28;20040;-75
2022/06/04 07:52:59;;;;;;;8.23;5.88;;;25.90;96.90;;;;;;5065117;28;20538;-76
2022/06/04 07:55:25;;;;;;;7.75;5.40;;;25.70;97.30;;;;;;5055380;28;20079;-75
2022/06/04 07:57:52;;;;;;;12.30;6.47;;;25.70;97.90;;;;;;5062414;28;20104;-76
2022/06/04 08:00:22;;;;;;;8.48;5.45;;;26.10;97.80;;;;;;5066987;28;20390;-76
2022/06/04 08:02:48;;;;;;;9.55;5.80;;;25.70;96.80;;;;;;5065932;28;20039;-76
2022/06/04 08:05:14;;;;;;;9.15;5.68;;;25.10;98.60;;;;;;5066574;28;20095;-77
2022/06/04 08:07:41;;;;;;;6.80;5.57;;;24.80;99.10;;;;;;5065418;28;20040;-77
2022/06/04 08:10:09;;;;;;;9.00;6.15;;;24.60;98.10;;;;;;5062956;28;20445;-77
2022/06/04 08:12:44;;;;;;;85.95;32.80;;;25.10;98.70;;;;;;5063029;28;20033;-77
2022/06/04 08:15:10;;;;;;;13.48;8.43;;;24.90;98.90;;;;;;5066364;28;20021;-77
2022/06/04 08:17:36;;;;;;;10.25;6.30;;;25.00;98.20;;;;;;5065293;28;20148;-77
2022/06/04 08:20:02;;;;;;;8.75;6.07;;;24.80;99.20;;;;;;5048224;28;20935;-76
2022/06/04 08:22:28;;;;;;;10.38;6.05;;;24.90;98.30;;;;;;5064268;28;20037;-76
2022/06/04 08:24:53;;;;;;;9.10;5.65;;;24.70;99.20;;;;;;5057782;28;20483;-77
2022/06/04 08:27:19;;;;;;;9.52;4.97;;;24.70;99.20;;;;;;5062417;28;20036;-77
2022/06/04 08:29:45;;;;;;;7.38;5.57;;;24.80;98.50;;;;;;5065475;28;20048;-78
2022/06/04 08:32:12;;;;;;;10.20;6.60;;;24.90;98.80;;;;;;5065608;28;20082;-77
2022/06/04 08:34:37;;;;;;;9.82;4.93;;;24.80;98.90;;;;;;5065875;28;20040;-78
2022/06/04 08:37:05;;;;;;;14.15;6.45;;;24.90;99.40;;;;;;5066779;28;20093;-77
2022/06/04 08:39:31;;;;;;;12.23;6.05;;;24.50;99.10;;;;;;5066939;28;20499;-78
2022/06/04 08:42:04;;;;;;;7.80;6.15;;;24.50;99.80;;;;;;5063888;28;20068;-77
2022/06/04 08:44:37;;;;;;;15.35;6.43;;;25.00;98.90;;;;;;5063878;28;20024;-75
2022/06/04 08:47:15;;;;;;;8.98;5.30;;;25.00;98.70;;;;;;5064647;28;20490;-74
2022/06/04 08:49:47;;;;;;;12.45;6.45;;;25.30;98.70;;;;;;5066073;28;20024;-76
2022/06/04 08:52:28;;;;;;;10.73;6.70;;;24.90;98.30;;;;;;5067113;28;20074;-76
2022/06/04 08:58:00;;;;;;;9.50;5.70;;;25.20;98.70;;;;;;5066899;28;20035;-76
2022/06/04 09:01:08;;;;;;;8.07;5.90;;;25.10;98.50;;;;;;5067495;28;20032;-76
2022/06/04 09:03:58;;;;;;;11.05;5.40;;;25.30;98.30;;;;;;5066915;28;20055;-76
2022/06/04 09:06:43;;;;;;;8.32;5.70;;;25.50;98.90;;;;;;5066178;28;20039;-76
2022/06/04 09:09:22;;;;;;;8.98;5.35;;;25.20;97.90;;;;;;5067315;28;20032;-76
2022/06/04 09:11:55;;;;;;;9.48;4.97;;;25.50;98.60;;;;;;5065172;28;20730;-76
2022/06/04 09:14:41;;;;;;;11.25;5.18;;;25.70;98.20;;;;;;5065735;28;20075;-76
2022/06/04 09:17:25;;;;;;;7.63;5.53;;;25.70;97.30;;;;;;5066350;28;20062;-76
2022/06/04 09:19:56;;;;;;;9.55;5.43;;;25.90;98.00;;;;;;5065779;28;20040;-76
2022/06/04 09:22:29;;;;;;;9.90;5.70;;;26.20;97.10;;;;;;5070278;28;20113;-76
2022/06/04 09:24:55;;;;;;;8.65;5.70;;;26.50;96.50;;;;;;5069623;28;20103;-76
2022/06/04 09:27:35;;;;;;;6.90;5.10;;;26.70;96.50;;;;;;5070061;28;20439;-76
2022/06/04 09:30:31;;;;;;;8.63;5.47;;;26.50;96.60;;;;;;5070265;28;20056;-76
2022/06/04 09:33:35;;;;;;;7.70;5.32;;;25.90;96.00;;;;;;5070337;28;20032;-76
2022/06/04 09:36:01;;;;;;;12.10;5.35;;;25.80;96.60;;;;;;5039881;28;20128;-76
2022/06/04 09:38:31;;;;;;;8.88;5.32;;;25.60;96.80;;;;;;5069738;28;20332;-77
2022/06/04 09:41:06;;;;;;;8.23;5.43;;;25.70;97.20;;;;;;5069732;28;20036;-76
2022/06/04 09:43:33;;;;;;;11.05;5.30;;;25.70;96.50;;;;;;5067468;28;20036;-76
2022/06/04 09:46:01;;;;;;;11.40;5.38;;;25.70;96.30;;;;;;5070431;28;20094;-76
2022/06/04 09:48:34;;;;;;;12.27;5.60;;;25.60;96.50;;;;;;5069982;28;20032;-76
2022/06/04 09:51:13;;;;;;;12.35;5.15;;;26.10;96.90;;;;;;5070032;28;20506;-76
2022/06/04 09:53:53;;;;;;;7.07;5.25;;;26.30;96.90;;;;;;5069864;28;20425;-76
2022/06/04 09:56:27;;;;;;;8.00;4.93;;;26.50;96.40;;;;;;5068510;28;20040;-76
2022/06/04 09:58:53;;;;;;;6.45;4.60;;;26.60;97.20;;;;;;5067091;28;20097;-76
2022/06/04 10:01:19;;;;;;;7.45;4.72;;;26.40;96.50;;;;;;5069940;28;20115;-76
2022/06/04 10:03:57;;;;;;;5.97;4.55;;;26.50;95.50;;;;;;5070215;28;20082;-76
2022/06/04 10:06:27;;;;;;;7.22;5.20;;;26.40;96.10;;;;;;5069330;28;20094;-76
2022/06/04 10:11:53;;;;;;;6.70;4.53;;;26.90;96.00;;;;;;5070178;28;20159;-76
2022/06/04 10:14:57;;;;;;;7.72;5.47;;;26.90;96.60;;;;;;5069434;28;20451;-77
2022/06/04 10:17:34;;;;;;;8.27;4.93;;;26.80;96.40;;;;;;5043946;28;20098;-76
2022/06/04 10:20:01;;;;;;;6.20;4.38;;;27.00;95.50;;;;;;5069638;28;20025;-76
2022/06/04 10:22:26;;;;;;;9.13;4.65;;;27.40;95.80;;;;;;5069207;28;20035;-76
2022/06/04 10:24:58;;;;;;;8.32;4.53;;;27.50;95.50;;;;;;5068992;28;20036;-76
2022/06/04 10:27:38;;;;;;;8.75;4.47;;;27.60;96.10;;;;;;5067577;28;20097;-76
2022/06/04 10:30:13;;;;;;;8.02;4.80;;;27.60;95.40;;;;;;5068630;28;20048;-76
2022/06/04 10:32:45;;;;;;;8.52;4.97;;;27.60;95.70;;;;;;5068273;28;20593;-76
2022/06/04 10:35:30;;;;;;;8.02;4.80;;;27.60;94.20;;;;;;5068354;28;20082;-76
2022/06/04 10:38:27;;;;;;;6.85;5.18;;;27.30;94.70;;;;;;5069228;28;20520;-76
2022/06/04 10:41:02;;;;;;;6.43;4.28;;;27.30;95.20;;;;;;5026336;28;20517;-76
2022/06/04 10:43:57;;;;;;;8.63;4.82;;;27.70;95.80;;;;;;5068469;28;20032;-77
2022/06/04 10:47:02;;;;;;;7.05;5.05;;;27.90;95.70;;;;;;5069273;28;20043;-77
2022/06/04 10:49:49;;;;;;;7.80;5.25;;;27.90;95.60;;;;;;5065595;28;20033;-74
2022/06/04 10:52:33;;;;;;;8.35;4.82;;;27.70;94.40;;;;;;5060795;28;20028;-77
2022/06/04 10:55:07;;;;;;;5.55;4.38;;;27.80;94.70;;;;;;5065193;28;20031;-77
2022/06/04 10:57:45;;;;;;;6.20;5.05;;;28.20;94.30;;;;;;5069549;28;20111;-74
2022/06/04 11:00:20;;;;;;;8.40;5.00;;;28.20;94.60;;;;;;5062359;28;20032;-75
2022/06/04 11:03:06;;;;;;;8.20;5.03;;;28.30;95.40;;;;;;5064857;28;20028;-74
2022/06/04 11:05:36;;;;;;;9.55;4.65;;;28.40;95.20;;;;;;5056400;28;20032;-79
2022/06/04 11:08:23;;;;;;;8.60;5.22;;;28.40;94.80;;;;;;5061621;28;20024;-78
2022/06/04 11:11:01;;;;;;;7.28;4.95;;;28.20;95.10;;;;;;5064012;28;20036;-77
2022/06/04 11:13:44;;;;;;;7.82;4.28;;;28.40;95.00;;;;;;5059223;28;20164;-77
2022/06/04 11:16:34;;;;;;;6.93;5.23;;;28.30;94.90;;;;;;5063098;28;20486;-77
2022/06/04 11:19:10;;;;;;;8.25;4.45;;;28.40;94.00;;;;;;5060744;28;20024;-77
2022/06/04 11:21:39;;;;;;;5.45;4.10;;;28.20;94.10;;;;;;5058725;28;21035;-77
2022/06/04 11:24:15;;;;;;;8.95;5.15;;;28.40;94.50;;;;;;5058122;28;20071;-75
2022/06/04 11:26:46;;;;;;;6.13;4.07;;;28.40;94.60;;;;;;5061653;28;20097;-75
2022/06/04 11:29:14;;;;;;;10.15;5.15;;;28.40;94.40;;;;;;5061390;28;20040;-76
2022/06/04 11:32:02;;;;;;;7.75;5.05;;;28.20;95.20;;;;;;5062839;28;20058;-76
2022/06/04 11:34:36;;;;;;;7.93;4.72;;;28.60;95.60;;;;;;5065176;28;20029;-76
2022/06/04 11:37:10;;;;;;;10.77;4.95;;;28.00;94.40;;;;;;5063199;28;20033;-76
2022/06/04 11:40:00;;;;;;;8.30;4.80;;;28.10;94.60;;;;;;5061650;28;20028;-76
2022/06/04 11:42:51;;;;;;;8.60;4.70;;;28.30;94.30;;;;;;5060499;28;20048;-80
2022/06/04 11:45:40;;;;;;;10.70;5.68;;;28.40;95.30;;;;;;5064157;28;20031;-79
2022/06/04 11:48:30;;;;;;;8.50;4.68;;;28.80;95.30;;;;;;5046196;28;20159;-78
2022/06/04 11:51:18;;;;;;;6.93;4.95;;;28.60;94.60;;;;;;5063860;28;20033;-79
2022/06/04 11:54:05;;;;;;;7.72;4.97;;;28.40;94.10;;;;;;5065979;28;20371;-79
2022/06/04 11:56:30;;;;;;;5.68;4.20;;;28.00;94.30;;;;;;5061113;28;20036;-79
2022/06/04 11:59:11;;;;;;;7.35;4.47;;;28.20;95.30;;;;;;5065286;28;20040;-79
2022/06/04 12:01:44;;;;;;;7.80;4.85;;;28.50;94.80;;;;;;5067603;28;20098;-79
2022/06/04 12:04:24;;;;;;;11.80;4.83;;;28.90;94.30;;;;;;5063215;28;20020;-79
2022/06/04 12:07:31;;;;;;;7.93;5.15;;;28.90;93.80;;;;;;5063842;28;20029;-79
2022/06/04 12:10:17;;;;;;;7.85;4.97;;;28.80;94.40;;;;;;4963647;28;20042;-79
2022/06/04 12:13:05;;;;;;;6.82;3.85;;;28.80;94.60;;;;;;5061389;28;20033;-79
2022/06/04 12:15:39;;;;;;;8.20;4.88;;;29.00;94.50;;;;;;5066016;28;20119;-78
2022/06/04 12:18:21;;;;;;;6.43;4.20;;;29.30;94.70;;;;;;5063392;28;20129;-78
2022/06/04 12:26:36;;;;;;;10.85;4.90;;;29.30;94.10;;;;;;5063949;28;20129;-79
2022/06/04 12:29:25;;;;;;;9.90;4.45;;;29.70;94.20;;;;;;5065495;28;20056;-79
2022/06/04 12:32:19;;;;;;;13.88;5.13;;;29.80;93.50;;;;;;5066163;28;20517;-79
2022/06/04 12:34:45;;;;;;;13.15;4.05;;;29.90;94.30;;;;;;5064638;28;20071;-78
2022/06/04 12:37:31;;;;;;;9.57;3.70;;;30.00;92.40;;;;;;5065490;28;20035;-79
2022/06/04 12:40:17;;;;;;;7.10;3.42;;;30.20;92.30;;;;;;5060878;28;20622;-79
2022/06/04 12:42:57;;;;;;;9.18;3.72;;;30.10;91.40;;;;;;5059096;28;20131;-79
2022/06/04 12:45:38;;;;;;;10.32;3.50;;;30.00;91.80;;;;;;5067053;28;20449;-78
2022/06/04 12:48:21;;;;;;;10.57;3.70;;;30.10;91.60;;;;;;5058546;28;20042;-79
2022/06/04 12:50:51;;;;;;;13.73;4.03;;;30.10;92.10;;;;;;5063668;28;20504;-79
2022/06/04 12:53:21;;;;;;;12.77;3.70;;;30.10;90.90;;;;;;5064960;28;20025;-78
2022/06/04 12:55:57;;;;;;;10.23;3.65;;;30.40;91.50;;;;;;5060913;28;20052;-79
2022/06/04 12:58:39;;;;;;;9.23;3.45;;;30.30;92.00;;;;;;5065362;28;20031;-79
2022/06/04 13:01:16;;;;;;;15.98;4.10;;;30.40;91.10;;;;;;5059005;28;20493;-79
2022/06/04 13:03:44;;;;;;;8.77;3.30;;;30.40;91.30;;;;;;5062831;28;20120;-79
2022/06/04 13:06:13;;;;;;;11.27;3.17;;;30.60;91.20;;;;;;5066298;28;20111;-78
2022/06/04 13:09:12;;;;;;;16.20;3.97;;;30.60;90.80;;;;;;5065251;28;20043;-79
2022/06/04 13:12:14;;;;;;;6.53;3.17;;;30.40;91.20;;;;;;5065813;28;20071;-78
2022/06/04 13:14:46;;;;;;;15.93;4.30;;;30.70;91.70;;;;;;5018754;28;20245;-72
2022/06/04 13:17:20;;;;;;;10.43;3.88;;;30.50;90.80;;;;;;5065004;28;20029;-78
2022/06/04 13:20:22;;;;;;;9.93;3.65;;;30.20;91.00;;;;;;5064916;28;20139;-79
2022/06/04 13:23:25;;;;;;;9.45;3.92;;;30.40;91.60;;;;;;5063094;28;20051;-79
2022/06/04 13:26:13;;;;;;;12.98;4.05;;;30.60;90.90;;;;;;5061761;28;20631;-79